N612AL 58CL-L77
Flight info
| Callsign | N612AL |
|---|---|
| Flight time | N/A |
| Altitude | 7500 |
| Route | VFR |
| Aircraft | P28R/L-SDG/C |
Departure
| Time | 2026-04-22 14:10 |
|---|---|
| Airport | Borrego Air Ranch Airport (58CL) |
Arrival
| Time | N/A |
|---|---|
| Airport | L77 |
| Time | Latitude | Longitude | Altitude | Speed | Heading |
|---|---|---|---|---|---|
| 2026-04-22 13:55 | 33.19153 | -116.28321 | 576 ft | 0 kts | 190° |
| 2026-04-22 14:05 | 33.19176 | -116.28288 | 573 ft | 9 kts | 56° |
| 2026-04-22 14:06 | 33.19191 | -116.28204 | 575 ft | 11 kts | 96° |
| 2026-04-22 14:06 | 33.19183 | -116.28121 | 576 ft | 10 kts | 98° |
| 2026-04-22 14:06 | 33.19175 | -116.28040 | 579 ft | 10 kts | 100° |
| 2026-04-22 14:06 | 33.19166 | -116.27967 | 580 ft | 9 kts | 95° |
| 2026-04-22 14:07 | 33.19155 | -116.27871 | 588 ft | 13 kts | 96° |
| 2026-04-22 14:07 | 33.19145 | -116.27783 | 592 ft | 9 kts | 98° |
| 2026-04-22 14:07 | 33.19136 | -116.27715 | 588 ft | 5 kts | 99° |
| 2026-04-22 14:07 | 33.19134 | -116.27706 | 588 ft | 0 kts | 99° |
| 2026-04-22 14:08 | 33.19139 | -116.27701 | 588 ft | 1 kts | 310° |
| 2026-04-22 14:08 | 33.19139 | -116.27712 | 589 ft | 0 kts | 278° |
| 2026-04-22 14:09 | 33.19145 | -116.27777 | 592 ft | 27 kts | 275° |
| 2026-04-22 14:09 | 33.19189 | -116.28200 | 585 ft | 73 kts | 275° |
| 2026-04-22 14:10 | 33.19251 | -116.28857 | 752 ft | 81 kts | 277° |
| 2026-04-22 14:10 | 33.19348 | -116.29523 | 1014 ft | 81 kts | 278° |
| 2026-04-22 14:10 | 33.19439 | -116.30210 | 1161 ft | 90 kts | 276° |
| 2026-04-22 14:10 | 33.19461 | -116.30934 | 1336 ft | 84 kts | 251° |
| 2026-04-22 14:11 | 33.19019 | -116.31384 | 1419 ft | 96 kts | 197° |
| 2026-04-22 14:11 | 33.18354 | -116.31098 | 1535 ft | 111 kts | 136° |
| 2026-04-22 14:11 | 33.18162 | -116.30188 | 1579 ft | 119 kts | 78° |
| 2026-04-22 14:11 | 33.18279 | -116.29232 | 1644 ft | 116 kts | 82° |
| 2026-04-22 14:12 | 33.18416 | -116.28256 | 1685 ft | 120 kts | 79° |
| 2026-04-22 14:12 | 33.18600 | -116.27329 | 1860 ft | 110 kts | 70° |
| 2026-04-22 14:12 | 33.18913 | -116.26518 | 2018 ft | 105 kts | 59° |
| 2026-04-22 14:12 | 33.19324 | -116.25809 | 2148 ft | 105 kts | 49° |
| 2026-04-22 14:13 | 33.19800 | -116.25145 | 2241 ft | 108 kts | 46° |
| 2026-04-22 14:13 | 33.20276 | -116.24459 | 2414 ft | 102 kts | 45° |
| 2026-04-22 14:13 | 33.20709 | -116.23801 | 2580 ft | 101 kts | 44° |
| 2026-04-22 14:13 | 33.21133 | -116.23150 | 2771 ft | 101 kts | 46° |
| 2026-04-22 14:14 | 33.21539 | -116.22424 | 2843 ft | 111 kts | 53° |
| 2026-04-22 14:14 | 33.21944 | -116.21612 | 2930 ft | 116 kts | 52° |
| 2026-04-22 14:14 | 33.22360 | -116.20779 | 3051 ft | 117 kts | 51° |
| 2026-04-22 14:14 | 33.22800 | -116.19939 | 3130 ft | 121 kts | 49° |
| 2026-04-22 14:15 | 33.23373 | -116.19172 | 3164 ft | 125 kts | 37° |
| 2026-04-22 14:15 | 33.24054 | -116.18593 | 3276 ft | 120 kts | 27° |
| 2026-04-22 14:15 | 33.24667 | -116.17874 | 3344 ft | 128 kts | 48° |
| 2026-04-22 14:15 | 33.25057 | -116.16915 | 3457 ft | 127 kts | 65° |
| 2026-04-22 14:16 | 33.25394 | -116.15959 | 3493 ft | 125 kts | 54° |
| 2026-04-22 14:16 | 33.25923 | -116.15120 | 3456 ft | 127 kts | 42° |
| 2026-04-22 14:16 | 33.26448 | -116.14318 | 3548 ft | 119 kts | 46° |
| 2026-04-22 14:16 | 33.26935 | -116.13503 | 3538 ft | 123 kts | 47° |
| 2026-04-22 14:17 | 33.27449 | -116.12676 | 3568 ft | 122 kts | 47° |
| 2026-04-22 14:17 | 33.27931 | -116.11851 | 3596 ft | 122 kts | 51° |
| 2026-04-22 14:17 | 33.28412 | -116.10996 | 3577 ft | 125 kts | 44° |
| 2026-04-22 14:17 | 33.28808 | -116.10504 | 3571 ft | 123 kts | 32° |
| 2026-04-22 14:18 | 33.29538 | -116.10060 | 3585 ft | 114 kts | 3° |
| 2026-04-22 14:18 | 33.30340 | -116.09960 | 3528 ft | 117 kts | 3° |
| 2026-04-22 14:18 | 33.31113 | -116.09866 | 3609 ft | 105 kts | 355° |
| 2026-04-22 14:18 | 33.31840 | -116.09920 | 3576 ft | 104 kts | 344° |
| 2026-04-22 14:19 | 33.32542 | -116.10115 | 3600 ft | 103 kts | 340° |
| 2026-04-22 14:19 | 33.33241 | -116.10322 | 3637 ft | 100 kts | 341° |
| 2026-04-22 14:19 | 33.33929 | -116.10492 | 3612 ft | 107 kts | 345° |
| 2026-04-22 14:19 | 33.34665 | -116.10596 | 3653 ft | 105 kts | 348° |
| 2026-04-22 14:20 | 33.36163 | -116.10747 | 3665 ft | 109 kts | 359° |
| 2026-04-22 14:20 | 33.36905 | -116.10639 | 3654 ft | 110 kts | 5° |
| 2026-04-22 14:20 | 33.37694 | -116.10459 | 3629 ft | 115 kts | 6° |
| 2026-04-22 14:21 | 33.39207 | -116.10008 | 3668 ft | 112 kts | 2° |
| 2026-04-22 14:21 | 33.39980 | -116.09797 | 3649 ft | 116 kts | 11° |
| 2026-04-22 14:22 | 33.41747 | -116.09223 | 3625 ft | 114 kts | 11° |
| 2026-04-22 14:22 | 33.42252 | -116.09005 | 3591 ft | 116 kts | 17° |
| 2026-04-22 14:22 | 33.43659 | -116.08051 | 3556 ft | 118 kts | 33° |
| 2026-04-22 14:23 | 33.44334 | -116.07505 | 3536 ft | 118 kts | 27° |
| 2026-04-22 14:23 | 33.45003 | -116.06963 | 3565 ft | 117 kts | 30° |
| 2026-04-22 14:23 | 33.45665 | -116.06396 | 3555 ft | 118 kts | 31° |
| 2026-04-22 14:23 | 33.46099 | -116.05980 | 3595 ft | 118 kts | 36° |
| 2026-04-22 14:24 | 33.46480 | -116.05543 | 3636 ft | 118 kts | 37° |
| 2026-04-22 14:24 | 33.47095 | -116.04926 | 3631 ft | 114 kts | 32° |
| 2026-04-22 14:24 | 33.47728 | -116.04287 | 3484 ft | 122 kts | 36° |
| 2026-04-22 14:24 | 33.48384 | -116.03677 | 3495 ft | 116 kts | 31° |
| 2026-04-22 14:25 | 33.49012 | -116.03071 | 3457 ft | 117 kts | 37° |
| 2026-04-22 14:25 | 33.49579 | -116.02347 | 3385 ft | 122 kts | 48° |
| 2026-04-22 14:25 | 33.50084 | -116.01552 | 3375 ft | 118 kts | 47° |
| 2026-04-22 14:25 | 33.50661 | -116.00849 | 3339 ft | 118 kts | 36° |
| 2026-04-22 14:26 | 33.51263 | -116.00186 | 3366 ft | 116 kts | 39° |
| 2026-04-22 14:26 | 33.51827 | -115.99487 | 3371 ft | 118 kts | 43° |
| 2026-04-22 14:26 | 33.52377 | -115.98740 | 3372 ft | 121 kts | 43° |
| 2026-04-22 14:26 | 33.52956 | -115.98066 | 3435 ft | 117 kts | 39° |
| 2026-04-22 14:27 | 33.53532 | -115.97355 | 3459 ft | 120 kts | 42° |
| 2026-04-22 14:27 | 33.54116 | -115.96658 | 3515 ft | 117 kts | 36° |
| 2026-04-22 14:27 | 33.54750 | -115.96052 | 3533 ft | 117 kts | 37° |
| 2026-04-22 14:27 | 33.55324 | -115.95342 | 3524 ft | 120 kts | 49° |
| 2026-04-22 14:28 | 33.55770 | -115.94482 | 3505 ft | 121 kts | 53° |
| 2026-04-22 14:28 | 33.56275 | -115.93697 | 3521 ft | 118 kts | 41° |
| 2026-04-22 14:28 | 33.56898 | -115.93081 | 3513 ft | 115 kts | 30° |
| 2026-04-22 14:28 | 33.57576 | -115.92588 | 3479 ft | 115 kts | 24° |
| 2026-04-22 14:29 | 33.58293 | -115.92172 | 3464 ft | 114 kts | 21° |
| 2026-04-22 14:29 | 33.59010 | -115.91759 | 3456 ft | 114 kts | 22° |
| 2026-04-22 14:29 | 33.59711 | -115.91272 | 3443 ft | 118 kts | 28° |
| 2026-04-22 14:29 | 33.60379 | -115.90693 | 3465 ft | 118 kts | 34° |
| 2026-04-22 14:30 | 33.60973 | -115.90013 | 3495 ft | 119 kts | 44° |
| 2026-04-22 14:30 | 33.61486 | -115.89219 | 3512 ft | 122 kts | 52° |
| 2026-04-22 14:30 | 33.61910 | -115.88344 | 3563 ft | 120 kts | 58° |
| 2026-04-22 14:30 | 33.62342 | -115.87505 | 3555 ft | 120 kts | 49° |
| 2026-04-22 14:31 | 33.62920 | -115.86785 | 3547 ft | 119 kts | 40° |
| 2026-04-22 14:31 | 33.63476 | -115.86063 | 3572 ft | 118 kts | 46° |
| 2026-04-22 14:31 | 33.64044 | -115.85344 | 3544 ft | 120 kts | 41° |
| 2026-04-22 14:31 | 33.64626 | -115.84638 | 3565 ft | 118 kts | 45° |
| 2026-04-22 14:32 | 33.65080 | -115.83806 | 3553 ft | 121 kts | 62° |
| 2026-04-22 14:32 | 33.65285 | -115.82802 | 3503 ft | 127 kts | 82° |
| 2026-04-22 14:32 | 33.65309 | -115.81761 | 3556 ft | 122 kts | 88° |
| 2026-04-22 14:32 | 33.65320 | -115.80741 | 3551 ft | 122 kts | 85° |
| 2026-04-22 14:33 | 33.65363 | -115.79714 | 3523 ft | 123 kts | 82° |
| 2026-04-22 14:33 | 33.65457 | -115.78699 | 3518 ft | 125 kts | 88° |
| 2026-04-22 14:33 | 33.65340 | -115.77677 | 3533 ft | 121 kts | 102° |
| 2026-04-22 14:33 | 33.65159 | -115.76673 | 3426 ft | 126 kts | 96° |
| 2026-04-22 14:34 | 33.65132 | -115.75627 | 3358 ft | 124 kts | 83° |
| 2026-04-22 14:34 | 33.65297 | -115.74614 | 3269 ft | 124 kts | 78° |
| 2026-04-22 14:34 | 33.65441 | -115.73595 | 3197 ft | 123 kts | 79° |
| 2026-04-22 14:34 | 33.65555 | -115.72576 | 3118 ft | 124 kts | 81° |
| 2026-04-22 14:35 | 33.65650 | -115.71550 | 3064 ft | 123 kts | 82° |
| 2026-04-22 14:35 | 33.65737 | -115.70534 | 3042 ft | 121 kts | 84° |
| 2026-04-22 14:35 | 33.65765 | -115.69528 | 2945 ft | 122 kts | 90° |
| 2026-04-22 14:35 | 33.65763 | -115.68513 | 2841 ft | 122 kts | 87° |
| 2026-04-22 14:36 | 33.65833 | -115.67505 | 2805 ft | 119 kts | 85° |
| 2026-04-22 14:36 | 33.65890 | -115.66537 | 2795 ft | 112 kts | 86° |
| 2026-04-22 14:36 | 33.65923 | -115.65625 | 2746 ft | 108 kts | 87° |
| 2026-04-22 14:36 | 33.66010 | -115.64795 | 2620 ft | 93 kts | 64° |
| 2026-04-22 14:37 | 33.66490 | -115.64377 | 2406 ft | 89 kts | 5° |
| 2026-04-22 14:37 | 33.66985 | -115.64669 | 2206 ft | 81 kts | 299° |
| 2026-04-22 14:37 | 33.67058 | -115.65326 | 2005 ft | 77 kts | 276° |
| 2026-04-22 14:37 | 33.67117 | -115.65936 | 1963 ft | 71 kts | 277° |
| 2026-04-22 14:38 | 33.67146 | -115.66547 | 1955 ft | 76 kts | 270° |
| 2026-04-22 14:38 | 33.67099 | -115.67184 | 1947 ft | 79 kts | 262° |
| 2026-04-22 14:38 | 33.66991 | -115.67834 | 1936 ft | 80 kts | 259° |
| 2026-04-22 14:38 | 33.66895 | -115.68488 | 1919 ft | 81 kts | 260° |
| 2026-04-22 14:39 | 33.66780 | -115.69150 | 1856 ft | 80 kts | 262° |
| 2026-04-22 14:39 | 33.66676 | -115.69818 | 1783 ft | 81 kts | 262° |
| 2026-04-22 14:39 | 33.66575 | -115.70457 | 1697 ft | 73 kts | 260° |
| 2026-04-22 14:40 | 33.66444 | -115.71274 | 1707 ft | 33 kts | 258° |
| 2026-04-22 14:40 | 33.66405 | -115.71513 | 1714 ft | 27 kts | 259° |
| 2026-04-22 14:40 | 33.66372 | -115.71707 | 1722 ft | 20 kts | 259° |
| 2026-04-22 14:40 | 33.66348 | -115.71852 | 1721 ft | 16 kts | 259° |
| 2026-04-22 14:41 | 33.66330 | -115.71964 | 1722 ft | 8 kts | 246° |
| 2026-04-22 14:41 | 33.66286 | -115.71980 | 1717 ft | 6 kts | 169° |
| 2026-04-22 14:41 | 33.66237 | -115.71971 | 1713 ft | 9 kts | 169° |
| 2026-04-22 14:41 | 33.66184 | -115.71951 | 1711 ft | 8 kts | 140° |
| 2026-04-22 14:42 | 33.66201 | -115.71919 | 1713 ft | 3 kts | 40° |
| 2026-04-22 14:42 | 33.66206 | -115.71903 | 1714 ft | 3 kts | 96° |
| 2026-04-22 14:42 | 33.66203 | -115.71900 | 1714 ft | 0 kts | 171° |